Evan, Minnesota
Current Conditions -  °F | °C
As of 3:53 PM on Wednesday 22 Oct 2014 (Local Time) from KRWF Reporting Station
Clear Clear  
Wind Chill: 67°   Ceiling: Unl
Heat Index: 67°   Visibility: 10mi
Dew Point: 45°   Wind: 21mph
Humidity: 45%   Direction: 150°SSE
Pressure: 29.95"   Gusts: NA
Location:  44.3713°N, 94.9134°W
Report Text: KRWF 222053Z AUTO 15018KT 10SM CLR 19/07 A2995 RMK AO2 PK WND 16028/2036 SLP143 T01940072 56018
Loading
Personal Weather Stations






























Interactive Weather Map
Tropical Storm Tracking
New forecast layout! Learn more

10-Day Weather Forecast

Advertisements
Track Severe Weather on mobile